Labette, Kansas
Current Conditions -  °F | °C
As of 7:52 AM on Thursday 29 Jan 2015 (Local Time) from KPPF Reporting Station
Overcast Overcast  
Wind Chill: 35°   Ceiling: 2500
Heat Index: 42°   Visibility: 10mi
Dew Point: 32°   Wind: 14mph
Humidity: 67%   Direction: 340°NNW
Pressure: 30.26"   Gusts: 25mph
Location:  37.2003°N, 95.1784°W
Report Text: KPPF 291352Z AUTO 34012G22KT 10SM OVC025 06/00 A3026 RMK AO2 PK WND 34033/1258 PRESRR SLP246 T00560000
Loading
Personal Weather Stations






























Interactive Weather Map New forecast layout! Learn more

10-Day Weather Forecast

Advertisements
Track Severe Weather on mobile